Time;durP1;ratioP1;P1;durP2;ratioP2;P2;SDS_P1;SDS_P2;PMS_P1;PMS_P2;Temp;Humidity;BMP_temperature;BMP_pressure;BME280_temperature;BME280_humidity;BME280_pressure;Samples;Min_cycle;Max_cycle;Signal;HPM_P1;HPM_P2
2022/04/12 13:48:14;;;;;;;5.33;2.87;;;;;;;19.00;26.82;99356.81;1830053;78;23473;-90
2022/04/12 14:26:36;;;;;;;6.53;3.10;;;;;;;18.56;27.25;99345.59;1778905;78;22760;-90
2022/04/12 14:29:04;;;;;;;6.28;2.80;;;;;;;18.39;26.79;99347.83;1749226;82;21111;-89
2022/04/12 14:31:31;;;;;;;5.80;2.42;;;;;;;18.26;27.23;99348.48;1751014;82;21031;-89
2022/04/12 14:33:58;;;;;;;8.23;2.75;;;;;;;18.07;27.33;99351.20;1727398;82;21008;-90
2022/04/12 14:36:25;;;;;;;6.17;2.35;;;;;;;17.86;26.89;99349.67;1718417;83;21090;-89
2022/04/12 14:38:52;;;;;;;5.53;2.12;;;;;;;17.61;27.80;99348.27;1735808;82;21232;-89
2022/04/12 14:41:19;;;;;;;8.55;2.80;;;;;;;17.33;27.84;99360.61;1740328;81;21053;-90
2022/04/12 14:43:46;;;;;;;7.78;2.45;;;;;;;17.10;28.24;99349.88;1738226;80;21011;-89
2022/04/12 14:46:14;;;;;;;4.50;2.30;;;;;;;16.98;28.21;99359.66;1738684;83;21019;-88
2022/04/12 14:48:41;;;;;;;4.33;2.50;;;;;;;17.02;28.29;99353.34;1739288;80;21030;-90
2022/04/12 14:51:08;;;;;;;5.35;2.40;;;;;;;17.06;28.60;99350.48;1740154;80;21094;-91
2022/04/12 14:53:34;;;;;;;8.03;3.08;;;;;;;17.19;29.01;99348.58;1739618;80;21039;-91
2022/04/12 14:56:01;;;;;;;6.35;3.05;;;;;;;17.37;28.99;99349.45;1738022;83;21041;-91
2022/04/12 14:58:30;;;;;;;6.05;2.67;;;;;;;17.55;28.09;99349.89;1740168;83;21038;-91
2022/04/12 15:01:01;;;;;;;4.15;2.20;;;;;;;17.92;29.63;99349.36;1740296;83;20975;-90
2022/04/12 15:03:26;;;;;;;5.37;2.70;;;;;;;18.11;28.07;99344.48;1739970;83;21003;-90
2022/04/12 15:05:53;;;;;;;7.40;2.42;;;;;;;18.26;27.07;99343.66;1739842;82;21311;-91
2022/04/12 15:08:20;;;;;;;5.50;2.70;;;;;;;18.42;27.23;99347.20;1737682;80;21077;-92
2022/04/12 15:10:47;;;;;;;4.70;2.70;;;;;;;18.54;27.52;99344.82;1744687;80;21089;-91
2022/04/12 15:13:14;;;;;;;8.08;2.77;;;;;;;18.37;27.11;99345.27;1735095;83;21014;-90
2022/04/12 15:15:43;;;;;;;5.08;2.10;;;;;;;18.46;26.63;99345.23;1736374;81;21141;-90
2022/04/12 15:18:10;;;;;;;7.40;2.60;;;;;;;18.37;26.37;99349.69;1730982;81;21034;-90
2022/04/12 15:20:36;;;;;;;6.17;2.60;;;;;;;18.19;26.44;99343.62;1735012;80;21025;-90
2022/04/12 15:23:04;;;;;;;4.70;2.77;;;;;;;18.01;25.94;99348.90;1743330;81;21091;-91
2022/04/12 15:25:31;;;;;;;5.78;2.47;;;;;;;18.10;27.70;99344.92;1752496;81;21076;-88
2022/04/12 15:27:58;;;;;;;5.35;2.27;;;;;;;18.09;27.14;99344.08;1743550;80;21076;-91
2022/04/12 15:30:24;;;;;;;4.37;2.33;;;;;;;18.20;25.60;99347.45;1763408;81;21064;-91
2022/04/12 15:32:51;;;;;;;7.67;2.50;;;;;;;18.21;26.29;99339.13;1713141;83;21062;-90
2022/04/12 15:35:17;;;;;;;5.08;2.00;;;;;;;18.07;25.29;99345.95;1722523;83;21091;-91
2022/04/12 15:37:48;;;;;;;9.50;2.30;;;;;;;17.87;26.54;99343.50;1723981;81;21059;-89
2022/04/12 15:40:16;;;;;;;4.05;2.27;;;;;;;17.68;27.20;99339.13;1709879;81;21102;-91
2022/04/12 15:42:45;;;;;;;5.95;2.60;;;;;;;17.57;27.50;99339.30;1731632;83;21024;-90
2022/04/12 15:45:12;;;;;;;4.17;2.05;;;;;;;17.38;27.32;99345.92;1734372;83;20978;-90
2022/04/12 15:47:38;;;;;;;3.12;1.82;;;;;;;17.20;27.52;99347.66;1719157;82;21030;-90
2022/04/12 15:50:06;;;;;;;4.17;1.98;;;;;;;17.06;27.67;99345.23;1727420;83;21139;-90
2022/04/12 15:52:33;;;;;;;7.17;2.10;;;;;;;16.72;27.83;99343.78;1745269;80;21037;-89
2022/04/12 15:55:10;;;;;;;4.05;2.30;;;;;;;16.28;27.70;99351.44;1640119;79;21182;31
2022/04/12 15:57:37;;;;;;;4.22;2.37;;;;;;;16.17;28.73;99357.61;1604579;89;21146;-92
2022/04/12 16:00:05;;;;;;;6.35;2.50;;;;;;;15.99;29.13;99349.61;1604986;89;21031;-92
2022/04/12 16:02:31;;;;;;;5.30;2.72;;;;;;;15.80;29.31;99353.50;1604754;89;21067;-92
2022/04/12 16:04:58;;;;;;;7.87;4.22;;;;;;;15.59;29.17;99354.36;1604679;89;21063;-91
2022/04/12 16:07:25;;;;;;;6.55;3.00;;;;;;;15.30;29.22;99359.03;1604466;89;21083;-91
2022/04/12 16:09:51;;;;;;;5.00;2.50;;;;;;;15.01;29.29;99360.18;1607727;86;21105;-90
2022/04/12 16:12:17;;;;;;;5.67;2.72;;;;;;;14.64;29.50;99355.03;1607719;86;21040;-90
2022/04/12 16:17:13;;;;;;;7.37;2.65;;;;;;;14.13;30.35;99362.09;1645865;87;21053;-93
2022/04/12 16:19:41;;;;;;;6.00;2.83;;;;;;;13.92;30.37;99357.98;1697081;84;21082;-89
2022/04/12 16:22:08;;;;;;;4.95;2.80;;;;;;;13.69;30.56;99357.48;1695483;82;21102;-93
2022/04/12 16:24:35;;;;;;;6.10;3.05;;;;;;;13.48;31.59;99360.80;1694836;84;21554;-92
2022/04/12 16:27:02;;;;;;;10.45;3.30;;;;;;;13.33;31.71;99362.17;1698291;82;21082;-93
2022/04/12 16:29:30;;;;;;;5.35;2.72;;;;;;;13.18;31.46;99361.31;1702813;82;21047;-89
2022/04/12 16:35:44;;;;;;;6.03;3.12;;;;;;;12.87;32.53;99367.03;1673366;82;21122;-93
2022/04/12 16:38:11;;;;;;;8.13;3.37;;;;;;;12.66;33.19;99376.80;1681167;84;21571;-93
2022/04/12 16:40:38;;;;;;;5.67;3.20;;;;;;;12.56;33.12;99376.20;1673192;82;21146;-93
2022/04/12 16:43:07;;;;;;;8.83;3.30;;;;;;;12.48;33.63;99379.48;1672572;83;21120;-92
2022/04/12 16:45:33;;;;;;;9.75;3.52;;;;;;;12.40;34.52;99380.99;1644156;81;21121;-92
2022/04/12 16:48:00;;;;;;;8.20;3.60;;;;;;;12.35;34.91;99386.77;1682504;84;21192;-94
2022/04/12 16:50:28;;;;;;;7.92;3.40;;;;;;;12.26;35.67;99384.44;1666976;81;21715;-92
2022/04/12 16:52:54;;;;;;;7.10;3.35;;;;;;;12.18;35.71;99391.16;1686275;82;21178;-92
2022/04/12 16:55:21;;;;;;;6.58;3.42;;;;;;;12.11;35.59;99392.20;1743306;81;20988;-92
2022/04/12 16:57:51;;;;;;;5.50;3.15;;;;;;;12.02;36.08;99385.95;1742001;82;21028;-92
2022/04/12 17:12:14;;;;;;;10.68;5.15;;;;;;;11.90;37.57;99408.81;1856385;77;24094;-82
2022/04/12 17:14:41;;;;;;;11.20;5.35;;;;;;;11.73;36.85;99417.00;1810000;78;21038;-78
2022/04/12 17:17:08;;;;;;;8.60;4.35;;;;;;;11.61;36.77;99416.46;1807093;78;21015;-80
2022/04/12 17:19:35;;;;;;;6.25;3.58;;;;;;;11.52;36.97;99418.85;1808702;79;21055;-81
2022/04/12 17:22:01;;;;;;;9.13;4.33;;;;;;;11.46;36.29;99428.08;1809026;79;20991;-83
2022/04/12 17:24:28;;;;;;;6.55;3.77;;;;;;;11.30;36.46;99431.48;1808900;79;21054;-82
2022/04/12 17:26:55;;;;;;;8.55;4.10;;;;;;;11.19;36.68;99429.13;1808991;79;20994;-82
2022/04/12 17:29:22;;;;;;;8.15;3.92;;;;;;;11.09;36.66;99439.34;1809037;79;22098;-81
2022/04/12 17:31:48;;;;;;;8.38;3.33;;;;;;;10.99;36.59;99436.52;1809866;79;21049;-80
2022/04/12 17:34:16;;;;;;;9.98;3.83;;;;;;;10.88;36.59;99440.63;1801139;79;21584;-82
2022/04/12 17:36:44;;;;;;;9.63;3.42;;;;;;;10.79;37.12;99448.20;1795682;79;21018;-77
2022/04/12 17:39:12;;;;;;;8.95;3.80;;;;;;;10.70;37.18;99446.65;1796409;79;20979;-77
2022/04/12 17:41:39;;;;;;;8.55;3.55;;;;;;;10.64;36.97;99457.14;1809210;79;21061;-79
2022/04/12 17:44:06;;;;;;;11.25;4.37;;;;;;;10.55;37.44;99458.19;1806692;79;20979;-78
2022/04/12 17:46:34;;;;;;;14.68;4.40;;;;;;;10.49;38.53;99459.61;1789795;79;21034;-78
2022/04/12 17:49:02;;;;;;;6.90;3.47;;;;;;;10.41;37.51;99465.40;1809011;79;21090;-78
2022/04/12 17:51:29;;;;;;;7.37;3.42;;;;;;;10.36;37.08;99468.52;1809120;79;21002;-79
2022/04/12 17:53:56;;;;;;;6.28;3.12;;;;;;;10.26;37.05;99472.98;1809265;79;20994;-79
2022/04/12 17:56:22;;;;;;;7.72;3.47;;;;;;;10.18;37.33;99476.61;1809709;79;20991;-79
2022/04/12 17:58:50;;;;;;;6.58;3.33;;;;;;;10.11;37.28;99489.70;1809751;79;21006;-78
2022/04/12 18:01:17;;;;;;;6.72;3.55;;;;;;;10.03;37.35;99485.53;1808983;79;21568;-79
2022/04/12 18:03:45;;;;;;;5.47;3.10;;;;;;;9.95;37.38;99490.41;1777252;81;21010;-77
2022/04/12 18:06:13;;;;;;;6.47;3.40;;;;;;;9.90;37.44;99501.74;1777834;80;21012;-79
2022/04/12 18:08:40;;;;;;;9.08;4.17;;;;;;;9.84;37.30;99497.95;1777476;81;21490;-78
2022/04/12 18:11:07;;;;;;;8.10;4.10;;;;;;;9.78;37.36;99497.59;1777314;81;21053;-80
2022/04/12 18:13:34;;;;;;;9.03;3.83;;;;;;;9.69;38.16;99501.65;1776979;81;21006;-79
2022/04/12 18:16:00;;;;;;;12.07;5.95;;;;;;;9.59;38.31;99508.71;1776741;81;21054;-78
2022/04/12 18:18:27;;;;;;;11.08;7.10;;;;;;;9.54;38.22;99515.25;1775773;81;21002;-79
2022/04/12 18:20:54;;;;;;;17.87;8.68;;;;;;;9.48;38.36;99509.30;1766385;80;20982;-80
2022/04/12 18:23:20;;;;;;;17.05;8.78;;;;;;;9.41;38.34;99518.91;1772360;80;21017;-79
2022/04/12 18:25:47;;;;;;;12.13;7.53;;;;;;;9.33;39.14;99526.80;1772075;80;20947;-79
2022/04/12 18:28:15;;;;;;;13.43;8.50;;;;;;;9.26;39.21;99527.73;1772242;80;21000;-80
2022/04/12 18:30:42;;;;;;;12.73;6.58;;;;;;;9.21;38.44;99521.77;1762545;81;21478;-80
2022/04/12 18:33:09;;;;;;;11.53;6.33;;;;;;;9.14;39.12;99531.79;1759094;80;20994;-79
2022/04/12 18:35:36;;;;;;;12.58;6.47;;;;;;;9.06;39.12;99529.28;1776941;81;21015;-80
2022/04/12 18:38:05;;;;;;;12.95;6.20;;;;;;;9.02;39.04;99533.24;1776910;81;21502;-82
2022/04/12 18:40:35;;;;;;;13.80;5.95;;;;;;;8.97;38.72;99538.45;1776733;81;20987;-79
2022/04/12 18:43:03;;;;;;;18.05;5.10;;;;;;;8.87;38.86;99531.25;1776849;81;21031;-79
2022/04/12 18:45:31;;;;;;;8.25;3.47;;;;;;;8.86;39.22;99537.74;1776761;81;21034;-79
2022/04/12 18:47:58;;;;;;;5.85;3.15;;;;;;;8.82;39.29;99545.13;1776795;81;21031;-82
2022/04/12 18:50:25;;;;;;;6.67;3.55;;;;;;;8.78;39.48;99545.59;1776839;81;21035;-79
2022/04/12 18:52:54;;;;;;;7.40;2.95;;;;;;;8.72;39.32;99548.26;1776767;81;21003;-79
2022/04/12 18:55:21;;;;;;;7.62;3.35;;;;;;;8.67;39.21;99542.25;1776898;81;21057;-79
2022/04/12 18:57:48;;;;;;;14.50;4.92;;;;;;;8.60;39.43;99544.50;1776820;81;21015;-79
2022/04/12 19:00:15;;;;;;;11.10;4.72;;;;;;;8.53;39.17;99547.16;1776910;81;21082;-79
2022/04/12 19:02:42;;;;;;;9.60;4.47;;;;;;;8.45;39.59;99548.93;1776621;81;21082;-79
2022/04/12 19:05:10;;;;;;;10.28;5.35;;;;;;;8.38;40.35;99547.25;1777027;81;21550;-79
2022/04/12 19:07:38;;;;;;;11.63;4.40;;;;;;;8.31;39.93;99557.23;1769939;81;20995;-82
2022/04/12 19:10:07;;;;;;;6.72;3.35;;;;;;;8.24;40.82;99550.41;1766987;81;21000;-79
2022/04/12 19:12:34;;;;;;;9.45;3.37;;;;;;;8.19;40.21;99556.05;1777179;81;21054;-79
2022/04/12 19:15:02;;;;;;;8.98;3.83;;;;;;;8.14;40.04;99556.94;1776823;81;21062;-79
2022/04/12 19:17:28;;;;;;;8.93;4.20;;;;;;;8.08;40.35;99559.58;1776795;81;21081;-79
2022/04/12 19:19:55;;;;;;;10.70;4.20;;;;;;;8.02;40.69;99555.75;1772745;80;21451;-79
2022/04/12 19:22:23;;;;;;;9.40;4.17;;;;;;;7.96;40.77;99555.35;1776794;81;20975;-79
2022/04/12 19:24:51;;;;;;;11.28;4.35;;;;;;;7.92;40.16;99555.39;1776595;81;20975;-79
2022/04/12 19:27:18;;;;;;;10.90;4.95;;;;;;;7.85;40.70;99556.30;1776786;81;21553;-79
2022/04/12 19:29:44;;;;;;;9.28;3.92;;;;;;;7.77;41.16;99552.02;1776909;81;20990;-78
2022/04/12 19:32:13;;;;;;;9.30;4.08;;;;;;;7.72;41.41;99556.38;1776780;81;21026;-79
2022/04/12 19:34:40;;;;;;;7.22;3.80;;;;;;;7.66;42.13;99555.12;1777728;81;21014;-79
2022/04/12 19:37:06;;;;;;;6.85;3.60;;;;;;;7.59;40.74;99556.45;1777028;80;20986;-79
2022/04/12 19:39:33;;;;;;;7.53;3.65;;;;;;;7.53;40.98;99559.94;1776778;81;21014;-80
2022/04/12 19:42:00;;;;;;;8.30;3.60;;;;;;;7.47;41.33;99558.23;1776805;81;20970;-79
2022/04/12 19:44:26;;;;;;;7.70;3.50;;;;;;;7.42;41.43;99557.82;1776934;81;21029;-79
2022/04/12 19:46:53;;;;;;;7.40;3.80;;;;;;;7.37;41.92;99563.03;1776787;81;21195;-79
2022/04/12 19:49:19;;;;;;;8.08;4.37;;;;;;;7.30;42.00;99564.80;1777899;81;20991;-79
2022/04/12 19:51:46;;;;;;;7.30;3.80;;;;;;;7.25;42.22;99560.06;1776883;81;21604;-79
2022/04/12 19:54:12;;;;;;;8.23;3.77;;;;;;;7.18;42.41;99559.64;1776776;80;21058;-79
2022/04/12 19:56:39;;;;;;;8.30;4.50;;;;;;;7.12;42.35;99557.97;1776920;81;21021;-78
2022/04/12 19:59:07;;;;;;;10.43;4.22;;;;;;;7.05;42.33;99558.84;1776769;81;21583;-79
2022/04/12 20:01:33;;;;;;;14.00;4.40;;;;;;;7.00;42.38;99563.16;1776816;81;21026;-79
2022/04/12 20:04:01;;;;;;;11.88;5.45;;;;;;;6.94;42.35;99573.11;1776918;81;21679;-78
2022/04/12 20:06:27;;;;;;;9.08;5.15;;;;;;;6.88;43.08;99570.95;1776839;81;21037;-79
2022/04/12 20:08:54;;;;;;;11.93;6.15;;;;;;;6.81;42.07;99573.99;1776700;81;21584;-79
2022/04/12 20:11:21;;;;;;;14.53;6.55;;;;;;;6.73;43.15;99571.42;1776721;81;21038;-77
2022/04/12 20:13:47;;;;;;;14.18;6.53;;;;;;;6.66;43.70;99579.18;1776765;81;21010;-79
2022/04/12 20:16:14;;;;;;;12.85;6.10;;;;;;;6.60;43.49;99577.90;1776935;81;21014;-78
2022/04/12 20:18:41;;;;;;;14.00;6.15;;;;;;;6.53;44.35;99586.95;1776835;81;21061;-79
2022/04/12 20:21:08;;;;;;;13.20;5.90;;;;;;;6.46;44.95;99591.68;1759438;81;21430;-79
2022/04/12 20:23:35;;;;;;;15.00;6.28;;;;;;;6.40;45.62;99590.39;1773336;81;21054;-79
2022/04/12 20:26:03;;;;;;;20.68;6.45;;;;;;;6.34;45.51;99585.23;1776772;81;21029;-80
2022/04/12 20:28:30;;;;;;;19.12;7.20;;;;;;;6.27;44.94;99586.11;1776888;81;21486;-77
2022/04/12 20:30:58;;;;;;;19.10;6.42;;;;;;;6.20;46.11;99592.13;1776777;81;21609;-79
2022/04/12 20:33:24;;;;;;;18.67;6.08;;;;;;;6.12;46.22;99589.53;1772110;81;21009;-79
2022/04/12 20:35:51;;;;;;;17.80;6.50;;;;;;;6.04;45.91;99588.66;1777165;81;21030;-79
2022/04/12 20:38:18;;;;;;;13.30;6.15;;;;;;;5.96;47.18;99595.10;1777002;81;20974;-79
2022/04/12 20:40:48;;;;;;;14.25;6.33;;;;;;;5.89;48.09;99595.50;1776762;81;21015;-79
2022/04/12 20:43:13;;;;;;;13.25;5.75;;;;;;;5.82;48.54;99598.91;1776588;81;21018;-79
2022/04/12 20:45:40;;;;;;;15.00;6.90;;;;;;;5.73;48.40;99593.31;1775531;81;21015;-79
2022/04/12 20:48:08;;;;;;;19.57;7.92;;;;;;;5.64;47.64;99596.30;1776790;81;21010;-79
2022/04/12 20:50:35;;;;;;;14.55;6.90;;;;;;;5.55;48.18;99602.27;1775538;81;21049;-79
2022/04/12 20:53:02;;;;;;;14.33;6.97;;;;;;;5.47;49.75;99598.80;1777077;81;20995;-78
2022/04/12 20:55:28;;;;;;;13.98;7.53;;;;;;;5.39;48.94;99605.22;1776726;81;21023;-77
2022/04/12 20:57:57;;;;;;;19.87;8.75;;;;;;;5.30;50.77;99594.88;1776678;81;20990;-77
2022/04/12 21:00:25;;;;;;;19.65;9.08;;;;;;;5.22;49.01;99594.84;1776805;81;21074;-79
2022/04/12 21:02:53;;;;;;;19.80;8.28;;;;;;;5.15;50.13;99598.23;1776584;81;21133;-79
2022/04/12 21:05:19;;;;;;;21.97;10.38;;;;;;;5.07;47.69;99598.20;1759461;81;21085;-79
2022/04/12 21:07:50;;;;;;;28.15;10.85;;;;;;;4.97;47.96;99590.88;1773244;81;21010;-79
2022/04/12 21:10:17;;;;;;;44.77;10.15;;;;;;;4.90;50.62;99597.27;1776916;81;21566;-81
2022/04/12 21:12:43;;;;;;;24.85;10.25;;;;;;;4.84;50.82;99600.66;1776505;81;21022;-79
2022/04/12 21:15:11;;;;;;;19.73;8.23;;;;;;;4.77;52.42;99605.33;1773286;81;21009;-79
2022/04/12 21:17:43;;;;;;;19.80;8.65;;;;;;;4.71;49.53;99613.02;1773296;81;21011;-81
2022/04/12 21:20:13;;;;;;;22.65;8.90;;;;;;;4.63;51.95;99606.52;1762607;81;21046;-81
2022/04/12 21:22:40;;;;;;;17.25;8.83;;;;;;;4.58;53.68;99609.50;1777470;80;20958;-81
2022/04/12 21:25:10;;;;;;;21.68;9.55;;;;;;;4.52;51.34;99613.33;1755093;81;21502;-81
2022/04/12 21:27:37;;;;;;;25.25;9.80;;;;;;;4.39;56.12;99613.63;1747392;81;21020;-81
2022/04/12 21:30:05;;;;;;;25.08;10.53;;;;;;;4.31;55.21;99610.98;1755919;81;21062;-81
2022/04/12 21:32:32;;;;;;;26.90;10.20;;;;;;;4.27;55.40;99603.24;1762305;81;20972;-80
2022/04/12 21:34:58;;;;;;;26.27;9.98;;;;;;;4.21;56.61;99610.91;1758726;81;21026;-79
2022/04/12 21:37:25;;;;;;;22.42;9.75;;;;;;;4.14;58.74;99618.58;1789791;80;21004;-78
2022/04/12 21:39:52;;;;;;;23.83;9.85;;;;;;;4.10;59.49;99610.40;1772455;81;21022;-79
2022/04/12 21:42:19;;;;;;;25.43;11.53;;;;;;;4.05;58.82;99617.20;1761020;81;21074;-79
2022/04/12 21:44:45;;;;;;;23.20;9.93;;;;;;;3.98;58.84;99613.71;1768925;81;21485;-79
2022/04/12 21:47:12;;;;;;;23.90;8.43;;;;;;;3.92;58.49;99612.77;1773036;81;20967;-79
2022/04/12 21:49:38;;;;;;;19.15;8.03;;;;;;;3.86;52.80;99612.70;1758297;81;21621;-78
2022/04/12 21:52:05;;;;;;;17.30;7.35;;;;;;;3.76;57.04;99610.06;1776335;81;21022;-79
2022/04/12 21:54:33;;;;;;;31.68;9.13;;;;;;;3.71;58.35;99607.84;1776173;81;21101;-78
2022/04/12 21:56:59;;;;;;;16.80;8.95;;;;;;;3.66;59.93;99612.09;1776329;81;21510;-78
2022/04/12 21:59:31;;;;;;;20.15;9.30;;;;;;;3.63;58.56;99607.34;1754922;81;21050;-78
2022/04/12 22:01:54;;;;;;;22.25;9.28;;;;;;;3.55;57.95;99613.67;1775668;81;21125;-80
2022/04/12 22:04:21;;;;;;;21.97;9.40;;;;;;;3.50;57.96;99615.31;1776760;81;21014;-80
2022/04/12 22:06:47;;;;;;;18.85;8.03;;;;;;;3.44;53.53;99616.53;1776604;81;21002;-80
2022/04/12 22:09:14;;;;;;;20.55;8.00;;;;;;;3.35;56.73;99610.87;1776392;81;21326;-80
2022/04/12 22:11:41;;;;;;;18.35;8.58;;;;;;;3.32;58.36;99610.81;1775348;81;21011;-80
2022/04/12 22:14:07;;;;;;;19.27;7.80;;;;;;;3.28;56.29;99609.94;1771222;81;21490;-81
2022/04/12 22:16:34;;;;;;;18.60;9.05;;;;;;;3.25;58.98;99615.45;1771442;81;20990;-81
2022/04/12 22:19:00;;;;;;;22.02;9.38;;;;;;;3.21;55.76;99619.69;1771450;81;21026;-81
2022/04/12 22:21:27;;;;;;;17.40;8.20;;;;;;;3.17;58.23;99611.50;1772651;81;21532;-81
2022/04/12 22:23:54;;;;;;;29.90;10.35;;;;;;;3.14;56.80;99617.47;1761832;81;21116;-80
2022/04/12 22:26:22;;;;;;;25.05;9.58;;;;;;;3.12;56.10;99615.70;1760476;81;21014;-81
2022/04/12 22:28:48;;;;;;;25.15;9.28;;;;;;;3.09;59.26;99611.39;1764344;81;21037;-80
2022/04/12 22:31:15;;;;;;;27.77;10.72;;;;;;;3.07;59.22;99609.66;1757982;81;20991;-80
2022/04/12 22:33:42;;;;;;;24.67;10.60;;;;;;;3.06;58.27;99607.91;1771453;81;20971;-80
2022/04/12 22:36:09;;;;;;;27.85;10.03;;;;;;;3.05;61.36;99613.91;1771659;81;21070;-80
2022/04/12 22:38:40;;;;;;;27.73;10.35;;;;;;;3.01;60.88;99613.43;1771510;81;21502;-81
2022/04/12 22:41:07;;;;;;;20.75;10.55;;;;;;;2.97;61.02;99611.23;1771214;81;21050;-79
2022/04/12 22:43:34;;;;;;;23.73;10.65;;;;;;;3.01;61.87;99619.85;1750227;81;21019;-78
2022/04/12 22:46:01;;;;;;;27.32;10.28;;;;;;;2.98;62.45;99620.25;1771282;81;20982;-79
2022/04/12 22:48:32;;;;;;;22.73;8.00;;;;;;;2.96;61.63;99623.22;1771408;81;21510;-80
2022/04/12 22:50:57;;;;;;;25.45;9.13;;;;;;;2.96;60.89;99615.91;1770126;81;21578;-79
2022/04/12 22:53:23;;;;;;;24.12;9.60;;;;;;;2.93;60.85;99619.74;1771277;81;21057;-79
2022/04/12 22:55:51;;;;;;;18.05;6.97;;;;;;;2.91;60.66;99624.84;1771001;81;22180;-78
2022/04/12 22:58:18;;;;;;;15.50;7.58;;;;;;;2.88;60.57;99624.79;1771356;81;21011;-78
2022/04/12 23:00:44;;;;;;;17.37;7.95;;;;;;;2.85;57.68;99631.19;1771223;81;21050;-79
2022/04/12 23:03:11;;;;;;;15.18;7.80;;;;;;;2.82;59.35;99634.12;1771227;81;21608;-79
2022/04/12 23:05:38;;;;;;;14.18;6.97;;;;;;;2.78;60.27;99628.06;1771374;81;21037;-79
2022/04/12 23:08:05;;;;;;;14.95;6.92;;;;;;;2.76;62.76;99632.32;1771652;81;21062;-81
2022/04/12 23:10:32;;;;;;;14.50;7.70;;;;;;;2.76;62.20;99632.32;1772098;81;21026;-81
2022/04/12 23:12:59;;;;;;;19.55;7.33;;;;;;;2.75;62.69;99637.03;1775441;81;21041;-82
2022/04/12 23:15:26;;;;;;;17.62;7.67;;;;;;;2.74;61.98;99628.87;1776948;81;21585;-80
2022/04/12 23:17:58;;;;;;;16.85;7.97;;;;;;;2.71;61.93;99632.69;1776524;81;21041;-81
2022/04/12 23:20:29;;;;;;;18.35;7.05;;;;;;;2.70;60.99;99627.95;1752225;81;21026;-79
2022/04/12 23:22:56;;;;;;;20.55;7.72;;;;;;;2.66;62.06;99624.04;1762939;81;21014;-78
2022/04/12 23:25:25;;;;;;;18.02;7.12;;;;;;;2.64;63.18;99626.58;1763331;81;21034;-80
2022/04/12 23:27:52;;;;;;;17.50;8.18;;;;;;;2.62;64.78;99621.84;1764989;81;21038;-78
2022/04/12 23:30:22;;;;;;;17.92;8.00;;;;;;;2.61;63.87;99623.09;1758889;80;21019;-79
2022/04/12 23:32:48;;;;;;;20.43;7.90;;;;;;;2.57;64.53;99628.20;1776641;81;21026;-79
2022/04/12 23:35:15;;;;;;;16.25;7.90;;;;;;;2.54;63.36;99625.56;1776654;81;21596;-79
2022/04/12 23:37:42;;;;;;;13.85;6.70;;;;;;;2.49;63.18;99622.08;1776642;81;20967;-78
2022/04/12 23:40:10;;;;;;;18.50;7.55;;;;;;;2.45;62.27;99622.88;1776866;81;21034;-80
2022/04/12 23:42:37;;;;;;;16.97;7.60;;;;;;;2.41;61.72;99615.08;1776991;81;21022;-80
2022/04/12 23:45:04;;;;;;;17.85;6.97;;;;;;;2.37;63.30;99620.18;1757720;81;21516;-80
2022/04/12 23:47:31;;;;;;;17.57;7.22;;;;;;;2.34;60.46;99620.55;1753454;81;21038;-81
2022/04/12 23:49:57;;;;;;;16.65;6.95;;;;;;;2.30;61.85;99613.63;1776950;81;20999;-80
2022/04/12 23:52:24;;;;;;;15.58;6.37;;;;;;;2.26;61.63;99618.27;1776873;81;21573;-80
2022/04/12 23:54:50;;;;;;;13.90;6.62;;;;;;;2.25;63.07;99622.95;1773659;81;21014;-80
2022/04/12 23:57:17;;;;;;;15.78;6.67;;;;;;;2.23;63.83;99618.20;1759511;81;21014;-81
2022/04/12 23:59:43;;;;;;;18.07;6.65;;;;;;;2.22;63.98;99625.48;1766354;81;21042;-81
